createdAt,value
2019-03-17T00:00:28.784Z,13.73
2019-03-17T00:05:35.001Z,10.93
2019-03-17T00:10:41.088Z,8.23
2019-03-17T00:15:48.321Z,10.40
2019-03-17T00:20:54.492Z,9.83
2019-03-17T00:26:00.612Z,9.13
2019-03-17T00:31:07.347Z,7.63
2019-03-17T00:36:13.654Z,7.47
2019-03-17T00:41:19.806Z,9.27
2019-03-17T00:46:25.866Z,8.67
2019-03-17T00:51:32.198Z,9.57
2019-03-17T00:56:39.154Z,7.67
2019-03-17T01:01:45.407Z,12.07
2019-03-17T01:06:51.534Z,5.13
2019-03-17T01:11:57.703Z,8.20
2019-03-17T01:17:03.859Z,9.53
2019-03-17T01:22:10.119Z,10.03
2019-03-17T01:27:16.246Z,10.13
2019-03-17T01:32:22.363Z,10.77
2019-03-17T01:37:29.661Z,6.80
2019-03-17T01:42:35.877Z,9.90
2019-03-17T01:47:41.874Z,7.77
2019-03-17T01:52:48.305Z,8.53
2019-03-17T01:57:54.310Z,9.60
2019-03-17T02:03:00.637Z,9.10
2019-03-17T02:08:06.854Z,10.67
2019-03-17T02:13:13.100Z,11.27
2019-03-17T02:18:19.219Z,13.13
2019-03-17T02:23:25.488Z,11.53
2019-03-17T02:28:31.547Z,10.03
2019-03-17T02:33:37.704Z,10.57
2019-03-17T02:38:43.810Z,10.40
2019-03-17T02:43:49.927Z,8.87
2019-03-17T02:48:56.170Z,10.20
2019-03-17T02:54:02.382Z,11.37
2019-03-17T02:59:08.571Z,9.30
2019-03-17T03:04:14.827Z,9.00
2019-03-17T03:09:20.951Z,9.47
2019-03-17T03:14:26.893Z,7.30
2019-03-17T03:19:33.115Z,6.10
2019-03-17T03:24:39.128Z,8.00
2019-03-17T03:29:45.059Z,7.90
2019-03-17T03:34:51.324Z,6.83
2019-03-17T03:39:57.559Z,7.53
2019-03-17T03:45:04.317Z,4.27
2019-03-17T03:50:10.555Z,2.13
2019-03-17T03:55:17.763Z,2.67
2019-03-17T04:00:24.093Z,4.30
2019-03-17T04:05:32.646Z,4.47
2019-03-17T04:10:37.929Z,4.30
2019-03-17T04:15:44.596Z,4.37
2019-03-17T04:20:50.714Z,4.00
2019-03-17T04:25:56.756Z,3.00
2019-03-17T04:31:02.879Z,3.80
2019-03-17T04:36:09.315Z,4.93
2019-03-17T04:41:16.514Z,3.90
2019-03-17T04:46:22.647Z,2.40
2019-03-17T04:51:28.698Z,3.53
2019-03-17T04:56:35.812Z,3.33
2019-03-17T05:01:41.951Z,4.97
2019-03-17T05:06:52.887Z,5.57
2019-03-17T05:11:55.934Z,4.30
2019-03-17T05:17:02.403Z,6.50
2019-03-17T05:22:08.601Z,4.87
2019-03-17T05:27:14.762Z,4.33
2019-03-17T05:32:21.029Z,4.47
2019-03-17T05:37:27.104Z,7.53
2019-03-17T05:42:33.151Z,5.70
2019-03-17T05:47:39.415Z,7.83
2019-03-17T05:52:45.563Z,7.03
2019-03-17T05:57:51.605Z,4.83
2019-03-17T06:02:57.693Z,2.97
2019-03-17T06:08:03.826Z,5.07
2019-03-17T06:13:09.912Z,8.13
2019-03-17T06:18:16.074Z,8.33
2019-03-17T06:23:22.222Z,8.10
2019-03-17T06:28:28.366Z,6.40
2019-03-17T06:33:34.395Z,5.00
2019-03-17T06:38:40.614Z,7.47
2019-03-17T06:43:46.762Z,7.10
2019-03-17T06:48:52.800Z,4.90
2019-03-17T06:53:59.010Z,4.03
2019-03-17T06:59:05.089Z,2.57
2019-03-17T07:04:11.204Z,2.73
2019-03-17T07:09:17.396Z,2.67
2019-03-17T07:14:23.827Z,5.17
2019-03-17T07:19:30.155Z,3.27
2019-03-17T07:24:37.756Z,3.17
2019-03-17T07:29:43.834Z,4.87
2019-03-17T07:34:50.109Z,2.23
2019-03-17T07:39:56.275Z,1.93
2019-03-17T07:45:02.580Z,5.07
2019-03-17T07:50:09.871Z,6.00
2019-03-17T07:55:16.043Z,4.30
2019-03-17T08:00:31.211Z,5.13
2019-03-17T08:05:35.009Z,4.50
2019-03-17T08:10:45.508Z,5.37
2019-03-17T08:15:52.026Z,4.00
2019-03-17T08:20:58.224Z,2.70
2019-03-17T08:26:04.345Z,3.67
2019-03-17T08:31:10.491Z,6.10
2019-03-17T08:36:17.071Z,5.63
2019-03-17T08:41:23.303Z,3.70
2019-03-17T08:46:29.510Z,4.00
2019-03-17T08:51:35.690Z,5.70
2019-03-17T08:56:42.043Z,6.30
2019-03-17T09:01:48.148Z,6.03
2019-03-17T09:06:54.110Z,4.63
2019-03-17T09:12:00.263Z,5.90
2019-03-17T09:17:14.204Z,5.70
2019-03-17T09:22:15.398Z,3.70
2019-03-17T09:27:21.623Z,4.73
2019-03-17T09:32:27.724Z,3.90
2019-03-17T09:37:34.099Z,2.17
2019-03-17T09:42:40.318Z,1.37
2019-03-17T09:47:46.513Z,2.30
2019-03-17T09:52:52.631Z,2.80
2019-03-17T09:57:58.910Z,4.60
2019-03-17T10:03:05.134Z,3.13
2019-03-17T10:08:11.407Z,3.07
2019-03-17T10:13:17.542Z,5.17
2019-03-17T10:18:23.694Z,4.37
2019-03-17T10:23:30.006Z,5.00
2019-03-17T10:28:36.114Z,3.03
2019-03-17T10:33:42.438Z,5.17
2019-03-17T10:38:48.599Z,2.07
2019-03-17T10:43:54.900Z,3.47
2019-03-17T10:49:00.896Z,5.00
2019-03-17T10:54:06.992Z,3.87
2019-03-17T10:59:13.003Z,3.93
2019-03-17T11:04:19.238Z,4.43
2019-03-17T11:09:25.769Z,3.13
2019-03-17T11:14:31.927Z,4.37
2019-03-17T11:19:38.107Z,4.50
2019-03-17T11:24:44.231Z,5.67
2019-03-17T11:29:54.781Z,2.90
2019-03-17T11:35:01.628Z,4.53
2019-03-17T11:40:10.705Z,4.37
2019-03-17T11:45:19.471Z,4.70
2019-03-17T11:50:25.799Z,4.47
2019-03-17T11:55:32.059Z,4.73
2019-03-17T12:00:38.161Z,3.33
2019-03-17T12:05:44.417Z,6.70
2019-03-17T12:10:50.798Z,4.10
2019-03-17T12:15:57.200Z,3.43
2019-03-17T12:21:03.275Z,8.70
2019-03-17T12:26:09.521Z,4.07
2019-03-17T12:31:15.712Z,3.47
2019-03-17T12:36:21.798Z,2.77
2019-03-17T12:41:28.050Z,5.07
2019-03-17T12:46:34.331Z,3.20
2019-03-17T12:51:40.421Z,5.83
2019-03-17T12:56:46.523Z,5.10
2019-03-17T13:01:52.907Z,4.60
2019-03-17T13:06:59.308Z,3.17
2019-03-17T13:12:05.446Z,4.73
2019-03-17T13:17:11.850Z,4.33
2019-03-17T13:22:18.171Z,3.93
2019-03-17T13:27:24.375Z,3.17
2019-03-17T13:32:30.515Z,6.60
2019-03-17T13:37:38.658Z,5.17
2019-03-17T13:42:44.797Z,5.67
2019-03-17T13:47:52.956Z,5.90
2019-03-17T13:52:58.844Z,5.63
2019-03-17T13:58:05.091Z,2.80
2019-03-17T14:03:11.146Z,6.13
2019-03-17T14:08:17.708Z,3.13
2019-03-17T14:13:23.644Z,3.73
2019-03-17T14:18:31.234Z,5.97
2019-03-17T14:23:37.383Z,4.63
2019-03-17T14:28:43.599Z,4.43
2019-03-17T14:33:49.669Z,5.07
2019-03-17T14:38:55.999Z,5.80
2019-03-17T14:44:02.050Z,5.17
2019-03-17T14:49:08.248Z,4.97
2019-03-17T14:54:14.501Z,4.07
2019-03-17T14:59:21.004Z,2.80
2019-03-17T15:04:27.059Z,5.97
2019-03-17T15:09:33.340Z,6.90
2019-03-17T15:14:39.503Z,4.23
2019-03-17T15:19:45.579Z,4.37
2019-03-17T15:24:51.682Z,6.53
2019-03-17T15:29:57.691Z,6.90
2019-03-17T15:35:11.630Z,6.70
2019-03-17T15:40:17.972Z,4.73
2019-03-17T15:45:24.186Z,4.23
2019-03-17T15:50:30.519Z,7.00
2019-03-17T15:55:36.802Z,3.77
2019-03-17T16:00:42.954Z,3.13
2019-03-17T16:05:49.067Z,3.70
2019-03-17T16:10:55.304Z,3.77
2019-03-17T16:16:01.467Z,5.80
2019-03-17T16:21:09.110Z,4.60
2019-03-17T16:26:15.346Z,6.03
2019-03-17T16:31:21.501Z,6.40
2019-03-17T16:36:27.636Z,5.63
2019-03-17T16:41:42.866Z,4.70
2019-03-17T16:46:42.157Z,4.50
2019-03-17T16:51:48.531Z,4.70
2019-03-17T16:56:54.723Z,3.27
2019-03-17T17:02:01.059Z,2.57
2019-03-17T17:07:07.642Z,7.10
2019-03-17T17:12:13.803Z,5.40
2019-03-17T17:17:20.258Z,2.53
2019-03-17T17:22:26.815Z,6.40
2019-03-17T17:27:32.910Z,2.97
2019-03-17T17:32:39.092Z,3.40
2019-03-17T17:37:45.381Z,8.03
2019-03-17T17:42:51.588Z,6.67
2019-03-17T17:47:57.946Z,3.63
2019-03-17T17:53:04.124Z,5.37
2019-03-17T17:58:10.561Z,6.23
2019-03-17T18:03:16.878Z,5.83
2019-03-17T18:08:23.326Z,3.93
2019-03-17T18:13:29.428Z,4.67
2019-03-17T18:18:35.840Z,4.27
2019-03-17T18:23:42.090Z,4.43
2019-03-17T18:28:48.348Z,6.03
2019-03-17T18:33:54.766Z,5.10
2019-03-17T18:39:01.108Z,4.60
2019-03-17T18:44:08.846Z,9.17
2019-03-17T18:49:15.050Z,3.73
2019-03-17T18:54:21.359Z,7.23
2019-03-17T18:59:28.026Z,4.60
2019-03-17T19:04:34.176Z,10.57
2019-03-17T19:09:40.275Z,7.67
2019-03-17T19:14:46.525Z,8.37
2019-03-17T19:19:52.694Z,7.23
2019-03-17T19:24:58.988Z,10.80
2019-03-17T19:30:06.069Z,9.50
2019-03-17T19:35:12.541Z,6.90
2019-03-17T19:40:18.746Z,7.20
2019-03-17T19:45:24.854Z,6.90
2019-03-17T19:50:31.028Z,6.23
2019-03-17T19:55:37.278Z,7.00
2019-03-17T20:00:43.585Z,10.70
2019-03-17T20:05:57.789Z,7.20
2019-03-17T20:10:57.777Z,7.57
2019-03-17T20:16:04.132Z,8.57
2019-03-17T20:21:10.212Z,7.70
2019-03-17T20:26:16.369Z,7.57
2019-03-17T20:31:22.414Z,6.67
2019-03-17T20:36:28.882Z,7.70
2019-03-17T20:41:35.349Z,11.50
2019-03-17T20:46:41.346Z,8.47
2019-03-17T20:51:47.435Z,5.47
2019-03-17T20:56:53.507Z,6.10
2019-03-17T21:01:59.592Z,10.07
2019-03-17T21:07:05.686Z,5.70
2019-03-17T21:12:11.629Z,5.23
2019-03-17T21:17:20.423Z,7.57
2019-03-17T21:22:27.491Z,6.33
2019-03-17T21:27:33.537Z,7.50
2019-03-17T21:32:39.735Z,6.57
2019-03-17T21:37:45.980Z,6.73
2019-03-17T21:42:52.134Z,9.93
2019-03-17T21:47:58.390Z,14.93
2019-03-17T21:53:04.494Z,6.23
2019-03-17T21:58:10.526Z,6.73
2019-03-17T22:03:20.944Z,7.17
2019-03-17T22:08:27.145Z,7.73
2019-03-17T22:13:33.202Z,6.77
2019-03-17T22:18:39.856Z,7.77
2019-03-17T22:23:46.054Z,5.60
2019-03-17T22:28:52.013Z,9.30
2019-03-17T22:33:59.518Z,7.17
2019-03-17T22:39:07.083Z,6.60
2019-03-17T22:44:24.089Z,5.97
2019-03-17T22:49:23.628Z,7.03
2019-03-17T22:54:31.515Z,7.50
2019-03-17T22:59:37.693Z,9.70
2019-03-17T23:04:44.106Z,4.93
2019-03-17T23:09:50.268Z,7.53
2019-03-17T23:14:56.538Z,5.57
2019-03-17T23:20:02.916Z,7.20
2019-03-17T23:25:09.288Z,6.17
2019-03-17T23:30:16.791Z,8.23
2019-03-17T23:35:22.953Z,10.40
2019-03-17T23:40:29.084Z,10.13
2019-03-17T23:45:35.331Z,10.53
2019-03-17T23:50:41.481Z,5.27
2019-03-17T23:55:47.716Z,8.83
